sensor_id;sensor_type;location;lat;lon;timestamp;temperature;humidity
21246;DHT22;10781;50.928;4.440;2023-05-27T00:01:19;13.40;99.90
21246;DHT22;10781;50.928;4.440;2023-05-27T00:03:46;13.50;99.90
21246;DHT22;10781;50.928;4.440;2023-05-27T00:06:12;13.50;99.90
21246;DHT22;10781;50.928;4.440;2023-05-27T00:08:37;13.50;99.90
21246;DHT22;10781;50.928;4.440;2023-05-27T00:11:03;13.50;99.90
21246;DHT22;10781;50.928;4.440;2023-05-27T00:13:29;13.50;99.90
21246;DHT22;10781;50.928;4.440;2023-05-27T00:15:54;13.60;99.90
21246;DHT22;10781;50.928;4.440;2023-05-27T00:18:21;13.60;99.90
21246;DHT22;10781;50.928;4.440;2023-05-27T00:20:47;13.60;99.90
21246;DHT22;10781;50.928;4.440;2023-05-27T00:23:14;13.30;99.90
21246;DHT22;10781;50.928;4.440;2023-05-27T00:25:40;13.10;99.90
21246;DHT22;10781;50.928;4.440;2023-05-27T00:28:05;13.10;99.90
21246;DHT22;10781;50.928;4.440;2023-05-27T00:30:31;13.00;99.90
21246;DHT22;10781;50.928;4.440;2023-05-27T00:32:57;13.00;99.90
21246;DHT22;10781;50.928;4.440;2023-05-27T00:35:22;13.00;99.90
21246;DHT22;10781;50.928;4.440;2023-05-27T00:37:48;13.10;99.90
21246;DHT22;10781;50.928;4.440;2023-05-27T00:40:15;13.00;99.90
21246;DHT22;10781;50.928;4.440;2023-05-27T00:42:44;13.00;99.90
21246;DHT22;10781;50.928;4.440;2023-05-27T00:45:11;12.90;99.90
21246;DHT22;10781;50.928;4.440;2023-05-27T00:47:36;12.90;99.90
21246;DHT22;10781;50.928;4.440;2023-05-27T00:50:04;12.90;99.90
21246;DHT22;10781;50.928;4.440;2023-05-27T00:52:30;12.90;99.90
21246;DHT22;10781;50.928;4.440;2023-05-27T00:54:56;12.80;99.90
21246;DHT22;10781;50.928;4.440;2023-05-27T00:57:23;12.80;99.90
21246;DHT22;10781;50.928;4.440;2023-05-27T00:59:48;12.70;99.90
21246;DHT22;10781;50.928;4.440;2023-05-27T01:02:14;12.70;99.90
21246;DHT22;10781;50.928;4.440;2023-05-27T01:04:41;12.70;99.90
21246;DHT22;10781;50.928;4.440;2023-05-27T01:07:22;12.70;99.90
21246;DHT22;10781;50.928;4.440;2023-05-27T01:10:03;12.70;99.90
21246;DHT22;10781;50.928;4.440;2023-05-27T01:12:49;12.60;99.90
21246;DHT22;10781;50.928;4.440;2023-05-27T01:15:17;12.70;99.90
21246;DHT22;10781;50.928;4.440;2023-05-27T01:17:45;12.60;99.90
21246;DHT22;10781;50.928;4.440;2023-05-27T01:20:12;12.70;99.90
21246;DHT22;10781;50.928;4.440;2023-05-27T01:22:41;12.70;99.90
21246;DHT22;10781;50.928;4.440;2023-05-27T01:25:08;12.50;99.90
21246;DHT22;10781;50.928;4.440;2023-05-27T01:27:34;12.40;99.90
21246;DHT22;10781;50.928;4.440;2023-05-27T01:30:00;12.40;99.90
21246;DHT22;10781;50.928;4.440;2023-05-27T01:37:45;12.40;99.90
21246;DHT22;10781;50.928;4.440;2023-05-27T01:40:13;12.30;99.90
21246;DHT22;10781;50.928;4.440;2023-05-27T01:42:40;12.30;99.90
21246;DHT22;10781;50.928;4.440;2023-05-27T01:45:07;12.30;99.90
21246;DHT22;10781;50.928;4.440;2023-05-27T01:47:34;12.20;99.90
21246;DHT22;10781;50.928;4.440;2023-05-27T01:50:00;12.10;99.90
21246;DHT22;10781;50.928;4.440;2023-05-27T01:52:26;11.90;99.90
21246;DHT22;10781;50.928;4.440;2023-05-27T01:54:52;11.80;99.90
21246;DHT22;10781;50.928;4.440;2023-05-27T01:57:18;11.80;99.90
21246;DHT22;10781;50.928;4.440;2023-05-27T01:59:43;11.70;99.90
21246;DHT22;10781;50.928;4.440;2023-05-27T02:02:09;11.90;99.90
21246;DHT22;10781;50.928;4.440;2023-05-27T02:04:35;12.00;99.90
21246;DHT22;10781;50.928;4.440;2023-05-27T02:07:01;12.10;99.90
21246;DHT22;10781;50.928;4.440;2023-05-27T02:09:26;12.10;99.90
21246;DHT22;10781;50.928;4.440;2023-05-27T02:11:52;12.00;99.90
21246;DHT22;10781;50.928;4.440;2023-05-27T02:14:17;11.90;99.90
21246;DHT22;10781;50.928;4.440;2023-05-27T02:16:44;11.90;99.90
21246;DHT22;10781;50.928;4.440;2023-05-27T02:19:10;11.90;99.90
21246;DHT22;10781;50.928;4.440;2023-05-27T02:21:35;11.90;99.90
21246;DHT22;10781;50.928;4.440;2023-05-27T02:24:02;11.90;99.90
21246;DHT22;10781;50.928;4.440;2023-05-27T02:26:28;11.80;99.90
21246;DHT22;10781;50.928;4.440;2023-05-27T02:28:54;11.80;99.90
21246;DHT22;10781;50.928;4.440;2023-05-27T02:31:19;12.00;99.90
21246;DHT22;10781;50.928;4.440;2023-05-27T02:33:45;12.00;99.90
21246;DHT22;10781;50.928;4.440;2023-05-27T02:36:11;12.10;99.90
21246;DHT22;10781;50.928;4.440;2023-05-27T02:38:38;12.20;99.90
21246;DHT22;10781;50.928;4.440;2023-05-27T02:41:03;12.30;99.90
21246;DHT22;10781;50.928;4.440;2023-05-27T02:43:29;12.00;99.90
21246;DHT22;10781;50.928;4.440;2023-05-27T02:45:55;11.80;99.90
21246;DHT22;10781;50.928;4.440;2023-05-27T02:48:20;11.60;99.90
21246;DHT22;10781;50.928;4.440;2023-05-27T02:50:46;11.70;99.90
21246;DHT22;10781;50.928;4.440;2023-05-27T02:53:11;11.70;99.90
21246;DHT22;10781;50.928;4.440;2023-05-27T02:55:37;11.70;99.90
21246;DHT22;10781;50.928;4.440;2023-05-27T02:58:03;11.70;99.90
21246;DHT22;10781;50.928;4.440;2023-05-27T03:00:33;11.80;99.90
21246;DHT22;10781;50.928;4.440;2023-05-27T03:02:59;11.80;99.90
21246;DHT22;10781;50.928;4.440;2023-05-27T03:05:24;11.60;99.90
21246;DHT22;10781;50.928;4.440;2023-05-27T03:07:50;11.40;99.90
21246;DHT22;10781;50.928;4.440;2023-05-27T03:10:16;11.30;99.90
21246;DHT22;10781;50.928;4.440;2023-05-27T03:12:41;11.40;99.90
21246;DHT22;10781;50.928;4.440;2023-05-27T03:15:07;11.30;99.90
21246;DHT22;10781;50.928;4.440;2023-05-27T03:17:37;11.20;99.90
21246;DHT22;10781;50.928;4.440;2023-05-27T03:20:03;11.30;99.90
21246;DHT22;10781;50.928;4.440;2023-05-27T03:22:31;11.20;99.90
21246;DHT22;10781;50.928;4.440;2023-05-27T03:24:56;11.00;99.90
21246;DHT22;10781;50.928;4.440;2023-05-27T03:27:22;11.10;99.90
21246;DHT22;10781;50.928;4.440;2023-05-27T03:29:48;11.10;99.90
21246;DHT22;10781;50.928;4.440;2023-05-27T03:32:14;11.00;99.90
21246;DHT22;10781;50.928;4.440;2023-05-27T03:34:39;10.90;99.90
21246;DHT22;10781;50.928;4.440;2023-05-27T03:37:05;10.80;99.90
21246;DHT22;10781;50.928;4.440;2023-05-27T03:39:31;10.80;99.90
21246;DHT22;10781;50.928;4.440;2023-05-27T03:41:57;10.90;99.90
21246;DHT22;10781;50.928;4.440;2023-05-27T03:44:23;11.00;99.90
21246;DHT22;10781;50.928;4.440;2023-05-27T03:46:48;11.10;99.90
21246;DHT22;10781;50.928;4.440;2023-05-27T03:49:14;10.90;99.90
21246;DHT22;10781;50.928;4.440;2023-05-27T03:51:39;11.00;99.90
21246;DHT22;10781;50.928;4.440;2023-05-27T03:54:05;11.20;99.90
21246;DHT22;10781;50.928;4.440;2023-05-27T03:56:31;11.20;99.90
21246;DHT22;10781;50.928;4.440;2023-05-27T03:58:57;10.90;99.90
21246;DHT22;10781;50.928;4.440;2023-05-27T04:01:22;10.90;99.90
21246;DHT22;10781;50.928;4.440;2023-05-27T04:03:49;11.10;99.90
21246;DHT22;10781;50.928;4.440;2023-05-27T04:06:15;11.40;99.90
21246;DHT22;10781;50.928;4.440;2023-05-27T04:08:41;11.50;99.90
21246;DHT22;10781;50.928;4.440;2023-05-27T04:11:10;11.60;99.90
21246;DHT22;10781;50.928;4.440;2023-05-27T04:13:38;11.60;99.90
21246;DHT22;10781;50.928;4.440;2023-05-27T04:16:03;11.70;99.90
21246;DHT22;10781;50.928;4.440;2023-05-27T04:18:29;11.60;99.90
21246;DHT22;10781;50.928;4.440;2023-05-27T04:20:55;11.40;99.90
21246;DHT22;10781;50.928;4.440;2023-05-27T04:23:20;11.40;99.90
21246;DHT22;10781;50.928;4.440;2023-05-27T04:25:46;11.30;99.90
21246;DHT22;10781;50.928;4.440;2023-05-27T04:28:14;11.20;99.90
21246;DHT22;10781;50.928;4.440;2023-05-27T04:30:41;11.20;99.90
21246;DHT22;10781;50.928;4.440;2023-05-27T04:33:07;11.00;99.90
21246;DHT22;10781;50.928;4.440;2023-05-27T04:35:33;10.90;99.90
21246;DHT22;10781;50.928;4.440;2023-05-27T04:37:59;10.80;99.90
21246;DHT22;10781;50.928;4.440;2023-05-27T04:40:26;10.70;99.90
21246;DHT22;10781;50.928;4.440;2023-05-27T04:42:54;10.90;99.90
21246;DHT22;10781;50.928;4.440;2023-05-27T04:45:20;11.00;99.90
21246;DHT22;10781;50.928;4.440;2023-05-27T04:47:46;10.80;99.90
21246;DHT22;10781;50.928;4.440;2023-05-27T04:50:12;10.80;99.90
21246;DHT22;10781;50.928;4.440;2023-05-27T04:52:38;10.90;99.90
21246;DHT22;10781;50.928;4.440;2023-05-27T04:55:08;10.80;99.90
21246;DHT22;10781;50.928;4.440;2023-05-27T04:57:34;10.80;99.90
21246;DHT22;10781;50.928;4.440;2023-05-27T05:00:02;10.80;99.90
21246;DHT22;10781;50.928;4.440;2023-05-27T05:02:31;10.90;99.90
21246;DHT22;10781;50.928;4.440;2023-05-27T05:05:09;10.90;99.90
21246;DHT22;10781;50.928;4.440;2023-05-27T05:07:35;10.90;99.90
21246;DHT22;10781;50.928;4.440;2023-05-27T05:10:06;10.90;99.90
21246;DHT22;10781;50.928;4.440;2023-05-27T05:12:32;11.10;99.90
21246;DHT22;10781;50.928;4.440;2023-05-27T05:14:58;11.10;99.90
21246;DHT22;10781;50.928;4.440;2023-05-27T05:17:24;11.20;99.90
21246;DHT22;10781;50.928;4.440;2023-05-27T05:19:51;11.10;99.90
21246;DHT22;10781;50.928;4.440;2023-05-27T05:22:17;11.10;99.90
21246;DHT22;10781;50.928;4.440;2023-05-27T05:24:49;11.10;99.90
21246;DHT22;10781;50.928;4.440;2023-05-27T05:27:15;11.20;99.90
21246;DHT22;10781;50.928;4.440;2023-05-27T05:29:41;11.40;99.90
21246;DHT22;10781;50.928;4.440;2023-05-27T05:32:08;11.40;99.90
21246;DHT22;10781;50.928;4.440;2023-05-27T05:34:39;11.40;99.90
21246;DHT22;10781;50.928;4.440;2023-05-27T05:37:05;11.40;99.90
21246;DHT22;10781;50.928;4.440;2023-05-27T05:39:32;11.50;99.90
21246;DHT22;10781;50.928;4.440;2023-05-27T05:41:58;11.60;99.90
21246;DHT22;10781;50.928;4.440;2023-05-27T05:44:24;11.70;99.90
21246;DHT22;10781;50.928;4.440;2023-05-27T05:46:51;11.60;99.90
21246;DHT22;10781;50.928;4.440;2023-05-27T05:49:18;11.70;99.90
21246;DHT22;10781;50.928;4.440;2023-05-27T05:51:44;11.80;99.90
21246;DHT22;10781;50.928;4.440;2023-05-27T05:54:09;11.90;99.90
21246;DHT22;10781;50.928;4.440;2023-05-27T05:56:35;11.90;99.90
21246;DHT22;10781;50.928;4.440;2023-05-27T05:59:01;12.00;99.90
21246;DHT22;10781;50.928;4.440;2023-05-27T06:01:26;12.00;99.90
21246;DHT22;10781;50.928;4.440;2023-05-27T06:03:53;12.10;99.90
21246;DHT22;10781;50.928;4.440;2023-05-27T06:06:19;12.40;99.90
21246;DHT22;10781;50.928;4.440;2023-05-27T06:08:44;12.40;99.90
21246;DHT22;10781;50.928;4.440;2023-05-27T06:11:11;12.40;99.90
21246;DHT22;10781;50.928;4.440;2023-05-27T06:13:37;12.40;99.90
21246;DHT22;10781;50.928;4.440;2023-05-27T06:16:02;12.50;99.90
21246;DHT22;10781;50.928;4.440;2023-05-27T06:18:28;12.50;99.90
21246;DHT22;10781;50.928;4.440;2023-05-27T06:20:54;12.40;99.90
21246;DHT22;10781;50.928;4.440;2023-05-27T06:23:19;12.50;99.90
21246;DHT22;10781;50.928;4.440;2023-05-27T06:25:45;12.80;99.90
21246;DHT22;10781;50.928;4.440;2023-05-27T06:28:11;13.00;99.90
21246;DHT22;10781;50.928;4.440;2023-05-27T06:30:37;13.10;99.90
21246;DHT22;10781;50.928;4.440;2023-05-27T06:33:03;13.30;99.90
21246;DHT22;10781;50.928;4.440;2023-05-27T06:35:29;13.40;99.90
21246;DHT22;10781;50.928;4.440;2023-05-27T06:37:55;13.40;99.90
21246;DHT22;10781;50.928;4.440;2023-05-27T06:40:20;13.50;99.90
21246;DHT22;10781;50.928;4.440;2023-05-27T06:42:46;13.40;99.90
21246;DHT22;10781;50.928;4.440;2023-05-27T06:45:12;13.60;99.90
21246;DHT22;10781;50.928;4.440;2023-05-27T06:47:38;13.80;99.90
21246;DHT22;10781;50.928;4.440;2023-05-27T06:50:04;13.90;99.90
21246;DHT22;10781;50.928;4.440;2023-05-27T06:52:31;14.00;99.90
21246;DHT22;10781;50.928;4.440;2023-05-27T06:54:56;14.20;99.90
21246;DHT22;10781;50.928;4.440;2023-05-27T06:57:22;14.30;99.90
21246;DHT22;10781;50.928;4.440;2023-05-27T06:59:47;14.20;99.90
21246;DHT22;10781;50.928;4.440;2023-05-27T07:02:13;14.40;99.90
21246;DHT22;10781;50.928;4.440;2023-05-27T07:04:39;14.60;99.90
21246;DHT22;10781;50.928;4.440;2023-05-27T07:07:05;14.70;99.90
21246;DHT22;10781;50.928;4.440;2023-05-27T07:09:31;14.80;99.90
21246;DHT22;10781;50.928;4.440;2023-05-27T07:11:56;15.00;99.90
21246;DHT22;10781;50.928;4.440;2023-05-27T07:14:22;15.40;99.90
21246;DHT22;10781;50.928;4.440;2023-05-27T07:16:48;16.40;99.90
21246;DHT22;10781;50.928;4.440;2023-05-27T07:19:13;17.80;99.90
21246;DHT22;10781;50.928;4.440;2023-05-27T07:21:39;18.70;99.90
21246;DHT22;10781;50.928;4.440;2023-05-27T07:24:05;19.20;99.90
21246;DHT22;10781;50.928;4.440;2023-05-27T07:26:31;20.90;99.90
21246;DHT22;10781;50.928;4.440;2023-05-27T07:28:58;20.80;99.90
21246;DHT22;10781;50.928;4.440;2023-05-27T07:31:27;20.60;99.90
21246;DHT22;10781;50.928;4.440;2023-05-27T07:33:53;20.60;99.90
21246;DHT22;10781;50.928;4.440;2023-05-27T07:36:19;20.20;99.90
21246;DHT22;10781;50.928;4.440;2023-05-27T07:38:45;20.30;99.90
21246;DHT22;10781;50.928;4.440;2023-05-27T07:41:13;20.10;99.90
21246;DHT22;10781;50.928;4.440;2023-05-27T07:43:39;20.40;99.90
21246;DHT22;10781;50.928;4.440;2023-05-27T07:46:05;20.20;99.90
21246;DHT22;10781;50.928;4.440;2023-05-27T07:48:31;20.20;99.90
21246;DHT22;10781;50.928;4.440;2023-05-27T07:50:57;20.00;99.90
21246;DHT22;10781;50.928;4.440;2023-05-27T07:53:22;20.10;99.90
21246;DHT22;10781;50.928;4.440;2023-05-27T07:55:48;21.20;99.90
21246;DHT22;10781;50.928;4.440;2023-05-27T07:58:14;21.40;99.90
21246;DHT22;10781;50.928;4.440;2023-05-27T08:00:39;22.70;99.90
21246;DHT22;10781;50.928;4.440;2023-05-27T08:03:05;24.10;99.90
21246;DHT22;10781;50.928;4.440;2023-05-27T08:05:32;23.70;99.90
21246;DHT22;10781;50.928;4.440;2023-05-27T08:07:58;23.20;99.90
21246;DHT22;10781;50.928;4.440;2023-05-27T08:10:25;23.50;99.90
21246;DHT22;10781;50.928;4.440;2023-05-27T08:12:51;24.40;99.90
21246;DHT22;10781;50.928;4.440;2023-05-27T08:15:17;23.80;99.90
21246;DHT22;10781;50.928;4.440;2023-05-27T08:17:42;23.30;99.90
21246;DHT22;10781;50.928;4.440;2023-05-27T08:20:10;25.50;99.90
21246;DHT22;10781;50.928;4.440;2023-05-27T08:22:36;25.10;99.90
21246;DHT22;10781;50.928;4.440;2023-05-27T08:25:02;25.00;98.60
21246;DHT22;10781;50.928;4.440;2023-05-27T08:30:14;26.20;96.60
21246;DHT22;10781;50.928;4.440;2023-05-27T08:32:41;25.70;96.90
21246;DHT22;10781;50.928;4.440;2023-05-27T08:35:07;25.80;96.20
21246;DHT22;10781;50.928;4.440;2023-05-27T08:37:33;26.40;95.50
21246;DHT22;10781;50.928;4.440;2023-05-27T08:39:58;27.40;94.90
21246;DHT22;10781;50.928;4.440;2023-05-27T08:42:24;27.00;92.60
21246;DHT22;10781;50.928;4.440;2023-05-27T08:44:51;26.50;92.80
21246;DHT22;10781;50.928;4.440;2023-05-27T08:47:17;27.60;91.80
21246;DHT22;10781;50.928;4.440;2023-05-27T08:49:43;28.20;91.20
21246;DHT22;10781;50.928;4.440;2023-05-27T08:52:14;27.70;90.20
21246;DHT22;10781;50.928;4.440;2023-05-27T08:54:44;26.40;90.60
21246;DHT22;10781;50.928;4.440;2023-05-27T08:57:12;26.40;91.20
21246;DHT22;10781;50.928;4.440;2023-05-27T08:59:39;26.80;90.20
21246;DHT22;10781;50.928;4.440;2023-05-27T09:02:10;27.10;87.40
21246;DHT22;10781;50.928;4.440;2023-05-27T09:04:38;28.50;88.00
21246;DHT22;10781;50.928;4.440;2023-05-27T09:07:04;28.90;82.10
21246;DHT22;10781;50.928;4.440;2023-05-27T09:09:30;27.40;86.30
21246;DHT22;10781;50.928;4.440;2023-05-27T09:11:59;28.70;84.50
21246;DHT22;10781;50.928;4.440;2023-05-27T09:14:28;29.30;80.30
21246;DHT22;10781;50.928;4.440;2023-05-27T09:16:56;29.70;79.00
21246;DHT22;10781;50.928;4.440;2023-05-27T09:19:22;29.50;78.20
21246;DHT22;10781;50.928;4.440;2023-05-27T09:21:52;29.20;76.60
21246;DHT22;10781;50.928;4.440;2023-05-27T09:24:23;28.80;75.50
21246;DHT22;10781;50.928;4.440;2023-05-27T09:26:52;29.20;77.30
21246;DHT22;10781;50.928;4.440;2023-05-27T09:29:19;30.10;77.80
21246;DHT22;10781;50.928;4.440;2023-05-27T09:31:45;30.50;73.70
21246;DHT22;10781;50.928;4.440;2023-05-27T09:34:11;29.70;74.70
21246;DHT22;10781;50.928;4.440;2023-05-27T09:36:48;31.00;73.10
21246;DHT22;10781;50.928;4.440;2023-05-27T09:39:15;30.30;71.50
21246;DHT22;10781;50.928;4.440;2023-05-27T09:41:42;30.00;71.50
21246;DHT22;10781;50.928;4.440;2023-05-27T09:44:08;29.70;73.60
21246;DHT22;10781;50.928;4.440;2023-05-27T09:46:35;29.60;72.10
21246;DHT22;10781;50.928;4.440;2023-05-27T09:49:01;29.30;71.80
21246;DHT22;10781;50.928;4.440;2023-05-27T09:51:31;27.20;76.00
21246;DHT22;10781;50.928;4.440;2023-05-27T09:53:58;28.40;77.10
21246;DHT22;10781;50.928;4.440;2023-05-27T09:56:25;29.20;74.10
21246;DHT22;10781;50.928;4.440;2023-05-27T09:58:54;30.40;72.40
21246;DHT22;10781;50.928;4.440;2023-05-27T10:01:23;29.10;72.10
21246;DHT22;10781;50.928;4.440;2023-05-27T10:03:51;29.60;71.80
21246;DHT22;10781;50.928;4.440;2023-05-27T10:06:17;30.00;71.80
21246;DHT22;10781;50.928;4.440;2023-05-27T10:08:44;29.80;72.60
21246;DHT22;10781;50.928;4.440;2023-05-27T10:11:10;31.30;69.30
21246;DHT22;10781;50.928;4.440;2023-05-27T10:13:37;30.60;68.30
21246;DHT22;10781;50.928;4.440;2023-05-27T10:16:03;32.40;67.40
21246;DHT22;10781;50.928;4.440;2023-05-27T10:18:30;33.00;64.20
21246;DHT22;10781;50.928;4.440;2023-05-27T10:20:59;32.40;62.80
21246;DHT22;10781;50.928;4.440;2023-05-27T10:23:30;32.00;63.30
21246;DHT22;10781;50.928;4.440;2023-05-27T10:26:05;31.70;63.30
21246;DHT22;10781;50.928;4.440;2023-05-27T10:31:18;31.30;63.70
21246;DHT22;10781;50.928;4.440;2023-05-27T10:33:45;31.70;64.20
21246;DHT22;10781;50.928;4.440;2023-05-27T10:36:12;31.60;63.00
21246;DHT22;10781;50.928;4.440;2023-05-27T10:38:40;32.40;62.40
21246;DHT22;10781;50.928;4.440;2023-05-27T10:41:07;32.40;60.60
21246;DHT22;10781;50.928;4.440;2023-05-27T10:43:33;32.00;61.20
21246;DHT22;10781;50.928;4.440;2023-05-27T10:46:03;34.00;61.50
21246;DHT22;10781;50.928;4.440;2023-05-27T10:48:31;34.10;59.60
21246;DHT22;10781;50.928;4.440;2023-05-27T10:50:58;32.90;59.00
21246;DHT22;10781;50.928;4.440;2023-05-27T10:53:28;33.40;59.80
21246;DHT22;10781;50.928;4.440;2023-05-27T10:55:57;32.60;57.50
21246;DHT22;10781;50.928;4.440;2023-05-27T10:58:23;32.30;59.00
21246;DHT22;10781;50.928;4.440;2023-05-27T11:00:51;31.30;59.80
21246;DHT22;10781;50.928;4.440;2023-05-27T11:03:27;32.70;60.00
21246;DHT22;10781;50.928;4.440;2023-05-27T11:06:06;32.60;58.30
21246;DHT22;10781;50.928;4.440;2023-05-27T11:08:32;32.80;57.20
21246;DHT22;10781;50.928;4.440;2023-05-27T11:11:12;33.00;58.90
21246;DHT22;10781;50.928;4.440;2023-05-27T11:13:45;32.70;56.80
21246;DHT22;10781;50.928;4.440;2023-05-27T11:16:12;33.00;56.80
21246;DHT22;10781;50.928;4.440;2023-05-27T11:18:42;33.30;57.00
21246;DHT22;10781;50.928;4.440;2023-05-27T11:21:09;32.30;57.90
21246;DHT22;10781;50.928;4.440;2023-05-27T11:23:42;32.90;57.50
21246;DHT22;10781;50.928;4.440;2023-05-27T11:26:22;33.90;55.00
21246;DHT22;10781;50.928;4.440;2023-05-27T11:28:57;33.50;53.80
21246;DHT22;10781;50.928;4.440;2023-05-27T11:31:28;34.40;53.30
21246;DHT22;10781;50.928;4.440;2023-05-27T11:33:55;36.40;53.70
21246;DHT22;10781;50.928;4.440;2023-05-27T11:36:24;36.80;49.50
21246;DHT22;10781;50.928;4.440;2023-05-27T11:38:58;37.70;48.30
21246;DHT22;10781;50.928;4.440;2023-05-27T11:41:27;37.30;47.10
21246;DHT22;10781;50.928;4.440;2023-05-27T11:44:06;36.50;44.90
21246;DHT22;10781;50.928;4.440;2023-05-27T11:46:40;36.80;45.80
21246;DHT22;10781;50.928;4.440;2023-05-27T11:49:07;34.10;44.70
21246;DHT22;10781;50.928;4.440;2023-05-27T11:51:34;33.60;48.80
21246;DHT22;10781;50.928;4.440;2023-05-27T11:54:01;33.50;47.20
21246;DHT22;10781;50.928;4.440;2023-05-27T11:56:28;33.70;48.20
21246;DHT22;10781;50.928;4.440;2023-05-27T11:58:54;33.10;49.50
21246;DHT22;10781;50.928;4.440;2023-05-27T12:01:21;32.90;49.20
21246;DHT22;10781;50.928;4.440;2023-05-27T12:03:47;34.20;48.80
21246;DHT22;10781;50.928;4.440;2023-05-27T12:06:12;34.40;47.10
21246;DHT22;10781;50.928;4.440;2023-05-27T12:08:38;34.00;48.40
21246;DHT22;10781;50.928;4.440;2023-05-27T12:11:04;32.40;49.70
21246;DHT22;10781;50.928;4.440;2023-05-27T12:13:30;33.20;50.80
21246;DHT22;10781;50.928;4.440;2023-05-27T12:15:57;36.00;48.80
21246;DHT22;10781;50.928;4.440;2023-05-27T12:18:23;37.90;46.10
21246;DHT22;10781;50.928;4.440;2023-05-27T12:20:49;37.40;44.20
21246;DHT22;10781;50.928;4.440;2023-05-27T12:23:15;36.70;45.10
21246;DHT22;10781;50.928;4.440;2023-05-27T12:25:41;35.10;45.00
21246;DHT22;10781;50.928;4.440;2023-05-27T12:28:08;35.40;46.20
21246;DHT22;10781;50.928;4.440;2023-05-27T12:30:35;37.50;44.10
21246;DHT22;10781;50.928;4.440;2023-05-27T12:33:04;36.30;43.50
21246;DHT22;10781;50.928;4.440;2023-05-27T12:35:31;34.30;44.60
21246;DHT22;10781;50.928;4.440;2023-05-27T12:37:57;33.70;45.60
21246;DHT22;10781;50.928;4.440;2023-05-27T12:40:23;33.40;48.00
21246;DHT22;10781;50.928;4.440;2023-05-27T12:42:49;34.60;46.80
21246;DHT22;10781;50.928;4.440;2023-05-27T12:45:15;34.00;45.90
21246;DHT22;10781;50.928;4.440;2023-05-27T12:47:41;33.50;45.50
21246;DHT22;10781;50.928;4.440;2023-05-27T12:50:07;32.90;46.20
21246;DHT22;10781;50.928;4.440;2023-05-27T12:52:33;32.70;48.50
21246;DHT22;10781;50.928;4.440;2023-05-27T12:54:59;33.30;46.90
21246;DHT22;10781;50.928;4.440;2023-05-27T12:57:25;34.80;46.50
21246;DHT22;10781;50.928;4.440;2023-05-27T12:59:52;35.50;45.40
21246;DHT22;10781;50.928;4.440;2023-05-27T13:02:18;34.30;45.40
21246;DHT22;10781;50.928;4.440;2023-05-27T13:04:43;35.80;45.00
21246;DHT22;10781;50.928;4.440;2023-05-27T13:07:10;34.70;42.40
21246;DHT22;10781;50.928;4.440;2023-05-27T13:09:42;33.80;44.80
21246;DHT22;10781;50.928;4.440;2023-05-27T13:12:07;36.00;45.40
21246;DHT22;10781;50.928;4.440;2023-05-27T13:14:33;36.20;42.60
21246;DHT22;10781;50.928;4.440;2023-05-27T13:16:59;35.20;43.20
21246;DHT22;10781;50.928;4.440;2023-05-27T13:19:25;34.00;44.00
21246;DHT22;10781;50.928;4.440;2023-05-27T13:21:50;33.70;43.40
21246;DHT22;10781;50.928;4.440;2023-05-27T13:24:16;35.80;44.50
21246;DHT22;10781;50.928;4.440;2023-05-27T13:26:42;36.40;41.90
21246;DHT22;10781;50.928;4.440;2023-05-27T13:29:08;36.20;41.30
21246;DHT22;10781;50.928;4.440;2023-05-27T13:31:33;35.90;42.60
21246;DHT22;10781;50.928;4.440;2023-05-27T13:33:59;36.90;42.60
21246;DHT22;10781;50.928;4.440;2023-05-27T13:36:25;38.30;40.60
21246;DHT22;10781;50.928;4.440;2023-05-27T13:38:51;37.30;39.80
21246;DHT22;10781;50.928;4.440;2023-05-27T13:41:16;37.50;41.10
21246;DHT22;10781;50.928;4.440;2023-05-27T13:43:42;35.90;41.30
21246;DHT22;10781;50.928;4.440;2023-05-27T13:46:08;36.60;43.10
21246;DHT22;10781;50.928;4.440;2023-05-27T13:48:33;37.00;41.70
21246;DHT22;10781;50.928;4.440;2023-05-27T13:50:59;35.30;41.10
21246;DHT22;10781;50.928;4.440;2023-05-27T13:53:25;36.50;42.20
21246;DHT22;10781;50.928;4.440;2023-05-27T13:55:50;35.90;42.50
21246;DHT22;10781;50.928;4.440;2023-05-27T13:58:17;36.00;41.40
21246;DHT22;10781;50.928;4.440;2023-05-27T14:00:43;36.00;40.30
21246;DHT22;10781;50.928;4.440;2023-05-27T14:03:09;35.70;40.70
21246;DHT22;10781;50.928;4.440;2023-05-27T14:05:34;37.10;40.60
21246;DHT22;10781;50.928;4.440;2023-05-27T14:08:02;37.00;40.00
21246;DHT22;10781;50.928;4.440;2023-05-27T14:10:31;37.70;39.40
21246;DHT22;10781;50.928;4.440;2023-05-27T14:12:57;38.10;39.30
21246;DHT22;10781;50.928;4.440;2023-05-27T14:15:23;36.40;40.30
21246;DHT22;10781;50.928;4.440;2023-05-27T14:17:53;34.70;39.80
21246;DHT22;10781;50.928;4.440;2023-05-27T14:20:18;34.90;42.00
21246;DHT22;10781;50.928;4.440;2023-05-27T14:22:45;34.90;40.70
21246;DHT22;10781;50.928;4.440;2023-05-27T14:25:11;34.80;41.40
21246;DHT22;10781;50.928;4.440;2023-05-27T14:27:37;33.90;42.50
21246;DHT22;10781;50.928;4.440;2023-05-27T14:30:03;33.90;42.30
21246;DHT22;10781;50.928;4.440;2023-05-27T14:32:29;33.80;41.80
21246;DHT22;10781;50.928;4.440;2023-05-27T14:34:55;35.10;41.20
21246;DHT22;10781;50.928;4.440;2023-05-27T14:37:22;36.50;41.50
21246;DHT22;10781;50.928;4.440;2023-05-27T14:39:47;35.40;40.60
21246;DHT22;10781;50.928;4.440;2023-05-27T14:42:13;34.70;41.00
21246;DHT22;10781;50.928;4.440;2023-05-27T14:44:39;34.50;40.30
21246;DHT22;10781;50.928;4.440;2023-05-27T14:47:04;33.90;42.20
21246;DHT22;10781;50.928;4.440;2023-05-27T14:49:30;34.40;41.70
21246;DHT22;10781;50.928;4.440;2023-05-27T14:51:57;34.20;42.00
21246;DHT22;10781;50.928;4.440;2023-05-27T14:54:23;34.30;41.40
21246;DHT22;10781;50.928;4.440;2023-05-27T14:56:48;35.40;42.30
21246;DHT22;10781;50.928;4.440;2023-05-27T14:59:14;34.20;41.10
21246;DHT22;10781;50.928;4.440;2023-05-27T15:01:40;34.20;41.50
21246;DHT22;10781;50.928;4.440;2023-05-27T15:04:05;34.20;40.70
21246;DHT22;10781;50.928;4.440;2023-05-27T15:06:31;34.80;39.90
21246;DHT22;10781;50.928;4.440;2023-05-27T15:08:57;35.30;40.90
21246;DHT22;10781;50.928;4.440;2023-05-27T15:11:23;34.10;40.70
21246;DHT22;10781;50.928;4.440;2023-05-27T15:13:49;33.80;42.10
21246;DHT22;10781;50.928;4.440;2023-05-27T15:16:15;33.30;42.00
21246;DHT22;10781;50.928;4.440;2023-05-27T15:18:40;34.20;42.10
21246;DHT22;10781;50.928;4.440;2023-05-27T15:21:06;34.70;41.70
21246;DHT22;10781;50.928;4.440;2023-05-27T15:23:33;34.20;41.50
21246;DHT22;10781;50.928;4.440;2023-05-27T15:25:58;32.70;42.00
21246;DHT22;10781;50.928;4.440;2023-05-27T15:28:24;32.50;42.90
21246;DHT22;10781;50.928;4.440;2023-05-27T15:30:50;32.50;44.40
21246;DHT22;10781;50.928;4.440;2023-05-27T15:33:17;32.60;43.10
21246;DHT22;10781;50.928;4.440;2023-05-27T15:35:43;32.10;43.70
21246;DHT22;10781;50.928;4.440;2023-05-27T15:38:09;32.90;42.70